sensor_id;sensor_type;location;lat;lon;timestamp;P1;durP1;ratioP1;P2;durP2;ratioP2
13228;SDS011;6680;53.220;10.402;2023-07-13T00:02:22;5.87;;;3.57;;
13228;SDS011;6680;53.220;10.402;2023-07-13T00:04:49;10.33;;;3.27;;
13228;SDS011;6680;53.220;10.402;2023-07-13T00:07:17;5.10;;;2.60;;
13228;SDS011;6680;53.220;10.402;2023-07-13T00:09:44;3.40;;;3.10;;
13228;SDS011;6680;53.220;10.402;2023-07-13T00:12:21;3.90;;;3.30;;
13228;SDS011;6680;53.220;10.402;2023-07-13T00:14:49;4.10;;;2.50;;
13228;SDS011;6680;53.220;10.402;2023-07-13T00:17:17;5.37;;;2.77;;
13228;SDS011;6680;53.220;10.402;2023-07-13T00:19:44;4.03;;;3.10;;
13228;SDS011;6680;53.220;10.402;2023-07-13T00:22:10;3.53;;;2.80;;
13228;SDS011;6680;53.220;10.402;2023-07-13T00:24:37;3.50;;;3.03;;
13228;SDS011;6680;53.220;10.402;2023-07-13T00:27:06;4.40;;;2.77;;
13228;SDS011;6680;53.220;10.402;2023-07-13T00:29:33;6.23;;;3.27;;
13228;SDS011;6680;53.220;10.402;2023-07-13T00:32:00;3.87;;;3.20;;
13228;SDS011;6680;53.220;10.402;2023-07-13T00:34:28;3.80;;;3.40;;
13228;SDS011;6680;53.220;10.402;2023-07-13T00:36:55;6.00;;;3.07;;
13228;SDS011;6680;53.220;10.402;2023-07-13T00:39:22;4.97;;;3.13;;
13228;SDS011;6680;53.220;10.402;2023-07-13T00:41:49;3.20;;;2.83;;
13228;SDS011;6680;53.220;10.402;2023-07-13T00:44:19;5.67;;;3.80;;
13228;SDS011;6680;53.220;10.402;2023-07-13T00:46:48;3.23;;;2.93;;
13228;SDS011;6680;53.220;10.402;2023-07-13T00:49:15;3.07;;;2.87;;
13228;SDS011;6680;53.220;10.402;2023-07-13T00:51:46;5.33;;;3.20;;
13228;SDS011;6680;53.220;10.402;2023-07-13T00:54:17;4.07;;;3.53;;
13228;SDS011;6680;53.220;10.402;2023-07-13T00:56:48;8.43;;;3.83;;
13228;SDS011;6680;53.220;10.402;2023-07-13T00:59:17;3.50;;;3.20;;
13228;SDS011;6680;53.220;10.402;2023-07-13T01:01:46;4.00;;;3.10;;
13228;SDS011;6680;53.220;10.402;2023-07-13T01:04:13;4.43;;;3.00;;
13228;SDS011;6680;53.220;10.402;2023-07-13T01:06:40;4.93;;;3.13;;
13228;SDS011;6680;53.220;10.402;2023-07-13T01:09:10;8.00;;;4.17;;
13228;SDS011;6680;53.220;10.402;2023-07-13T01:11:37;3.53;;;3.20;;
13228;SDS011;6680;53.220;10.402;2023-07-13T01:14:04;7.03;;;3.77;;
13228;SDS011;6680;53.220;10.402;2023-07-13T01:16:32;4.47;;;3.77;;
13228;SDS011;6680;53.220;10.402;2023-07-13T01:19:00;3.97;;;3.30;;
13228;SDS011;6680;53.220;10.402;2023-07-13T01:21:32;4.57;;;3.60;;
13228;SDS011;6680;53.220;10.402;2023-07-13T01:23:59;4.90;;;3.80;;
13228;SDS011;6680;53.220;10.402;2023-07-13T01:26:27;4.60;;;3.50;;
13228;SDS011;6680;53.220;10.402;2023-07-13T01:28:54;5.80;;;3.70;;
13228;SDS011;6680;53.220;10.402;2023-07-13T01:31:22;9.20;;;3.67;;
13228;SDS011;6680;53.220;10.402;2023-07-13T01:33:48;4.67;;;3.90;;
13228;SDS011;6680;53.220;10.402;2023-07-13T01:36:15;4.80;;;3.43;;
13228;SDS011;6680;53.220;10.402;2023-07-13T01:38:43;4.73;;;3.50;;
13228;SDS011;6680;53.220;10.402;2023-07-13T01:41:10;3.93;;;3.50;;
13228;SDS011;6680;53.220;10.402;2023-07-13T01:43:37;5.60;;;3.73;;
13228;SDS011;6680;53.220;10.402;2023-07-13T01:46:04;4.00;;;3.67;;
13228;SDS011;6680;53.220;10.402;2023-07-13T01:48:30;4.23;;;3.80;;
13228;SDS011;6680;53.220;10.402;2023-07-13T01:50:57;4.50;;;3.30;;
13228;SDS011;6680;53.220;10.402;2023-07-13T01:53:24;4.80;;;3.43;;
13228;SDS011;6680;53.220;10.402;2023-07-13T01:55:53;5.73;;;3.73;;
13228;SDS011;6680;53.220;10.402;2023-07-13T01:58:19;8.13;;;3.40;;
13228;SDS011;6680;53.220;10.402;2023-07-13T02:00:47;7.87;;;3.57;;
13228;SDS011;6680;53.220;10.402;2023-07-13T02:03:14;3.93;;;3.20;;
13228;SDS011;6680;53.220;10.402;2023-07-13T02:05:43;3.87;;;3.57;;
13228;SDS011;6680;53.220;10.402;2023-07-13T02:08:09;3.70;;;3.40;;
13228;SDS011;6680;53.220;10.402;2023-07-13T02:10:37;4.63;;;3.63;;
13228;SDS011;6680;53.220;10.402;2023-07-13T02:13:05;3.80;;;3.43;;
13228;SDS011;6680;53.220;10.402;2023-07-13T02:15:32;5.17;;;3.57;;
13228;SDS011;6680;53.220;10.402;2023-07-13T02:17:59;7.63;;;4.27;;
13228;SDS011;6680;53.220;10.402;2023-07-13T02:20:26;3.47;;;3.03;;
13228;SDS011;6680;53.220;10.402;2023-07-13T02:22:53;4.43;;;3.90;;
13228;SDS011;6680;53.220;10.402;2023-07-13T02:25:19;4.10;;;3.80;;
13228;SDS011;6680;53.220;10.402;2023-07-13T02:27:46;5.47;;;3.90;;
13228;SDS011;6680;53.220;10.402;2023-07-13T02:30:14;7.73;;;3.47;;
13228;SDS011;6680;53.220;10.402;2023-07-13T02:32:41;6.77;;;3.67;;
13228;SDS011;6680;53.220;10.402;2023-07-13T02:35:08;3.53;;;3.23;;
13228;SDS011;6680;53.220;10.402;2023-07-13T02:37:35;5.27;;;3.50;;
13228;SDS011;6680;53.220;10.402;2023-07-13T02:40:02;3.87;;;3.47;;
13228;SDS011;6680;53.220;10.402;2023-07-13T02:42:33;5.83;;;3.57;;
13228;SDS011;6680;53.220;10.402;2023-07-13T02:45:00;5.03;;;3.80;;
13228;SDS011;6680;53.220;10.402;2023-07-13T02:47:28;4.07;;;3.67;;
13228;SDS011;6680;53.220;10.402;2023-07-13T02:49:54;5.93;;;3.70;;
13228;SDS011;6680;53.220;10.402;2023-07-13T02:52:21;5.83;;;3.47;;
13228;SDS011;6680;53.220;10.402;2023-07-13T02:54:48;4.53;;;3.57;;
13228;SDS011;6680;53.220;10.402;2023-07-13T02:57:14;6.63;;;3.47;;
13228;SDS011;6680;53.220;10.402;2023-07-13T02:59:41;5.40;;;4.13;;
13228;SDS011;6680;53.220;10.402;2023-07-13T03:02:08;5.40;;;3.97;;
13228;SDS011;6680;53.220;10.402;2023-07-13T03:04:37;4.73;;;3.43;;
13228;SDS011;6680;53.220;10.402;2023-07-13T03:07:04;3.60;;;3.30;;
13228;SDS011;6680;53.220;10.402;2023-07-13T03:09:32;6.20;;;3.60;;
13228;SDS011;6680;53.220;10.402;2023-07-13T03:12:00;3.47;;;3.17;;
13228;SDS011;6680;53.220;10.402;2023-07-13T03:14:27;4.73;;;3.63;;
13228;SDS011;6680;53.220;10.402;2023-07-13T03:16:55;4.33;;;3.57;;
13228;SDS011;6680;53.220;10.402;2023-07-13T03:19:21;5.73;;;3.50;;
13228;SDS011;6680;53.220;10.402;2023-07-13T03:21:49;5.93;;;4.50;;
13228;SDS011;6680;53.220;10.402;2023-07-13T03:24:16;6.00;;;3.90;;
13228;SDS011;6680;53.220;10.402;2023-07-13T03:26:43;4.00;;;3.60;;
13228;SDS011;6680;53.220;10.402;2023-07-13T03:29:10;4.43;;;3.87;;
13228;SDS011;6680;53.220;10.402;2023-07-13T03:31:36;3.40;;;3.10;;
13228;SDS011;6680;53.220;10.402;2023-07-13T03:34:03;4.43;;;3.57;;
13228;SDS011;6680;53.220;10.402;2023-07-13T03:36:31;7.67;;;3.27;;
13228;SDS011;6680;53.220;10.402;2023-07-13T03:39:00;5.73;;;3.97;;
13228;SDS011;6680;53.220;10.402;2023-07-13T03:41:29;6.67;;;4.17;;
13228;SDS011;6680;53.220;10.402;2023-07-13T03:43:56;5.97;;;3.67;;
13228;SDS011;6680;53.220;10.402;2023-07-13T03:46:23;6.10;;;3.77;;
13228;SDS011;6680;53.220;10.402;2023-07-13T03:48:50;6.07;;;3.60;;
13228;SDS011;6680;53.220;10.402;2023-07-13T03:51:17;7.37;;;4.53;;
13228;SDS011;6680;53.220;10.402;2023-07-13T03:53:44;4.00;;;3.70;;
13228;SDS011;6680;53.220;10.402;2023-07-13T03:56:14;5.67;;;4.00;;
13228;SDS011;6680;53.220;10.402;2023-07-13T03:58:43;4.33;;;3.33;;
13228;SDS011;6680;53.220;10.402;2023-07-13T04:01:12;5.07;;;3.53;;
13228;SDS011;6680;53.220;10.402;2023-07-13T04:03:39;8.33;;;3.80;;
13228;SDS011;6680;53.220;10.402;2023-07-13T04:06:07;3.50;;;3.20;;
13228;SDS011;6680;53.220;10.402;2023-07-13T04:08:40;4.10;;;3.17;;
13228;SDS011;6680;53.220;10.402;2023-07-13T04:11:07;4.43;;;3.30;;
13228;SDS011;6680;53.220;10.402;2023-07-13T04:13:35;4.30;;;3.43;;
13228;SDS011;6680;53.220;10.402;2023-07-13T04:16:01;5.67;;;3.50;;
13228;SDS011;6680;53.220;10.402;2023-07-13T04:18:28;8.73;;;3.90;;
13228;SDS011;6680;53.220;10.402;2023-07-13T04:20:55;3.93;;;3.23;;
13228;SDS011;6680;53.220;10.402;2023-07-13T04:23:22;4.70;;;3.27;;
13228;SDS011;6680;53.220;10.402;2023-07-13T04:25:49;6.30;;;3.40;;
13228;SDS011;6680;53.220;10.402;2023-07-13T04:28:18;2.77;;;2.57;;
13228;SDS011;6680;53.220;10.402;2023-07-13T04:30:47;3.17;;;2.77;;
13228;SDS011;6680;53.220;10.402;2023-07-13T04:33:13;2.67;;;2.47;;
13228;SDS011;6680;53.220;10.402;2023-07-13T04:35:41;4.60;;;2.87;;
13228;SDS011;6680;53.220;10.402;2023-07-13T04:38:08;4.90;;;2.77;;
13228;SDS011;6680;53.220;10.402;2023-07-13T04:40:36;2.87;;;2.67;;
13228;SDS011;6680;53.220;10.402;2023-07-13T04:43:03;3.67;;;3.37;;
13228;SDS011;6680;53.220;10.402;2023-07-13T04:45:30;5.17;;;3.67;;
13228;SDS011;6680;53.220;10.402;2023-07-13T04:47:58;6.53;;;3.30;;
13228;SDS011;6680;53.220;10.402;2023-07-13T04:50:25;4.03;;;2.70;;
13228;SDS011;6680;53.220;10.402;2023-07-13T04:52:51;3.50;;;3.20;;
13228;SDS011;6680;53.220;10.402;2023-07-13T04:55:19;3.07;;;2.77;;
13228;SDS011;6680;53.220;10.402;2023-07-13T04:57:46;6.00;;;2.90;;
13228;SDS011;6680;53.220;10.402;2023-07-13T05:00:13;3.03;;;2.50;;
13228;SDS011;6680;53.220;10.402;2023-07-13T05:02:43;3.30;;;3.00;;
13228;SDS011;6680;53.220;10.402;2023-07-13T05:05:12;4.60;;;2.77;;
13228;SDS011;6680;53.220;10.402;2023-07-13T05:07:39;3.63;;;2.93;;
13228;SDS011;6680;53.220;10.402;2023-07-13T05:10:07;3.13;;;2.70;;
13228;SDS011;6680;53.220;10.402;2023-07-13T05:12:34;3.47;;;2.47;;
13228;SDS011;6680;53.220;10.402;2023-07-13T05:15:01;4.47;;;2.43;;
13228;SDS011;6680;53.220;10.402;2023-07-13T05:17:28;3.23;;;2.53;;
13228;SDS011;6680;53.220;10.402;2023-07-13T05:19:55;3.93;;;2.50;;
13228;SDS011;6680;53.220;10.402;2023-07-13T05:22:23;6.30;;;2.90;;
13228;SDS011;6680;53.220;10.402;2023-07-13T05:24:49;3.37;;;2.87;;
13228;SDS011;6680;53.220;10.402;2023-07-13T05:27:16;4.37;;;2.53;;
13228;SDS011;6680;53.220;10.402;2023-07-13T05:29:43;6.20;;;2.80;;
13228;SDS011;6680;53.220;10.402;2023-07-13T05:32:10;3.10;;;2.33;;
13228;SDS011;6680;53.220;10.402;2023-07-13T05:34:36;2.63;;;2.10;;
13228;SDS011;6680;53.220;10.402;2023-07-13T05:37:03;3.47;;;2.30;;
13228;SDS011;6680;53.220;10.402;2023-07-13T05:39:31;4.00;;;2.10;;
13228;SDS011;6680;53.220;10.402;2023-07-13T05:41:58;2.67;;;1.93;;
13228;SDS011;6680;53.220;10.402;2023-07-13T05:44:25;4.17;;;2.50;;
13228;SDS011;6680;53.220;10.402;2023-07-13T05:46:51;3.77;;;2.40;;
13228;SDS011;6680;53.220;10.402;2023-07-13T05:49:20;3.23;;;2.40;;
13228;SDS011;6680;53.220;10.402;2023-07-13T05:51:47;5.43;;;3.07;;
13228;SDS011;6680;53.220;10.402;2023-07-13T05:54:14;2.80;;;2.07;;
13228;SDS011;6680;53.220;10.402;2023-07-13T05:56:42;6.40;;;2.50;;
13228;SDS011;6680;53.220;10.402;2023-07-13T05:59:09;3.77;;;2.20;;
13228;SDS011;6680;53.220;10.402;2023-07-13T06:01:36;7.40;;;2.47;;
13228;SDS011;6680;53.220;10.402;2023-07-13T06:04:03;4.40;;;2.23;;
13228;SDS011;6680;53.220;10.402;2023-07-13T06:06:30;4.30;;;2.60;;
13228;SDS011;6680;53.220;10.402;2023-07-13T06:08:56;3.63;;;2.30;;
13228;SDS011;6680;53.220;10.402;2023-07-13T06:11:24;4.80;;;2.57;;
13228;SDS011;6680;53.220;10.402;2023-07-13T06:13:53;4.47;;;2.30;;
13228;SDS011;6680;53.220;10.402;2023-07-13T06:16:20;6.93;;;2.73;;
13228;SDS011;6680;53.220;10.402;2023-07-13T06:18:47;4.00;;;2.37;;
13228;SDS011;6680;53.220;10.402;2023-07-13T06:21:15;4.17;;;2.57;;
13228;SDS011;6680;53.220;10.402;2023-07-13T06:23:44;6.67;;;3.00;;
13228;SDS011;6680;53.220;10.402;2023-07-13T06:26:12;6.83;;;2.47;;
13228;SDS011;6680;53.220;10.402;2023-07-13T06:28:39;6.57;;;3.17;;
13228;SDS011;6680;53.220;10.402;2023-07-13T06:31:07;11.00;;;2.87;;
13228;SDS011;6680;53.220;10.402;2023-07-13T06:33:36;2.87;;;2.10;;
13228;SDS011;6680;53.220;10.402;2023-07-13T06:36:03;6.03;;;2.83;;
13228;SDS011;6680;53.220;10.402;2023-07-13T06:38:31;2.40;;;2.20;;
13228;SDS011;6680;53.220;10.402;2023-07-13T06:40:58;2.50;;;2.27;;
13228;SDS011;6680;53.220;10.402;2023-07-13T06:43:24;4.73;;;2.77;;
13228;SDS011;6680;53.220;10.402;2023-07-13T06:45:51;7.10;;;2.83;;
13228;SDS011;6680;53.220;10.402;2023-07-13T06:48:22;5.50;;;2.73;;
13228;SDS011;6680;53.220;10.402;2023-07-13T06:50:49;6.60;;;2.97;;
13228;SDS011;6680;53.220;10.402;2023-07-13T06:53:16;3.73;;;2.33;;
13228;SDS011;6680;53.220;10.402;2023-07-13T06:55:44;5.27;;;2.37;;
13228;SDS011;6680;53.220;10.402;2023-07-13T06:58:11;9.10;;;3.00;;
13228;SDS011;6680;53.220;10.402;2023-07-13T07:00:38;4.40;;;2.30;;
13228;SDS011;6680;53.220;10.402;2023-07-13T07:03:05;13.57;;;3.00;;
13228;SDS011;6680;53.220;10.402;2023-07-13T07:05:33;5.93;;;2.70;;
13228;SDS011;6680;53.220;10.402;2023-07-13T07:08:00;4.73;;;2.70;;
13228;SDS011;6680;53.220;10.402;2023-07-13T07:10:29;5.57;;;2.27;;
13228;SDS011;6680;53.220;10.402;2023-07-13T07:12:56;4.80;;;2.33;;
13228;SDS011;6680;53.220;10.402;2023-07-13T07:15:23;4.17;;;2.30;;
13228;SDS011;6680;53.220;10.402;2023-07-13T07:17:50;6.57;;;2.63;;
13228;SDS011;6680;53.220;10.402;2023-07-13T07:20:16;6.37;;;2.57;;
13228;SDS011;6680;53.220;10.402;2023-07-13T07:22:44;5.60;;;2.60;;
13228;SDS011;6680;53.220;10.402;2023-07-13T07:25:11;8.07;;;2.93;;
13228;SDS011;6680;53.220;10.402;2023-07-13T07:27:38;4.53;;;2.60;;
13228;SDS011;6680;53.220;10.402;2023-07-13T07:30:05;5.73;;;2.60;;
13228;SDS011;6680;53.220;10.402;2023-07-13T07:32:33;5.37;;;2.33;;
13228;SDS011;6680;53.220;10.402;2023-07-13T07:35:00;5.13;;;2.57;;
13228;SDS011;6680;53.220;10.402;2023-07-13T07:37:26;4.43;;;2.67;;
13228;SDS011;6680;53.220;10.402;2023-07-13T07:39:54;5.43;;;2.60;;
13228;SDS011;6680;53.220;10.402;2023-07-13T07:42:21;6.23;;;2.70;;
13228;SDS011;6680;53.220;10.402;2023-07-13T07:44:48;6.40;;;2.63;;
13228;SDS011;6680;53.220;10.402;2023-07-13T07:47:14;6.20;;;2.90;;
13228;SDS011;6680;53.220;10.402;2023-07-13T07:49:41;4.97;;;2.47;;
13228;SDS011;6680;53.220;10.402;2023-07-13T07:52:08;8.37;;;2.73;;
13228;SDS011;6680;53.220;10.402;2023-07-13T07:54:35;5.97;;;2.60;;
13228;SDS011;6680;53.220;10.402;2023-07-13T07:57:03;5.90;;;2.73;;
13228;SDS011;6680;53.220;10.402;2023-07-13T07:59:30;5.63;;;3.03;;
13228;SDS011;6680;53.220;10.402;2023-07-13T08:01:57;4.50;;;2.77;;
13228;SDS011;6680;53.220;10.402;2023-07-13T08:04:24;4.70;;;2.60;;
13228;SDS011;6680;53.220;10.402;2023-07-13T08:06:50;8.07;;;2.60;;
13228;SDS011;6680;53.220;10.402;2023-07-13T08:09:17;5.53;;;3.00;;
13228;SDS011;6680;53.220;10.402;2023-07-13T08:11:44;5.57;;;2.10;;
13228;SDS011;6680;53.220;10.402;2023-07-13T08:14:11;6.13;;;2.60;;
13228;SDS011;6680;53.220;10.402;2023-07-13T08:16:38;6.83;;;2.73;;
13228;SDS011;6680;53.220;10.402;2023-07-13T08:19:05;3.20;;;2.50;;
13228;SDS011;6680;53.220;10.402;2023-07-13T08:21:32;3.43;;;2.43;;
13228;SDS011;6680;53.220;10.402;2023-07-13T08:23:58;6.30;;;2.10;;
13228;SDS011;6680;53.220;10.402;2023-07-13T08:26:25;9.73;;;2.87;;
13228;SDS011;6680;53.220;10.402;2023-07-13T08:28:52;7.80;;;2.33;;
13228;SDS011;6680;53.220;10.402;2023-07-13T08:31:20;7.03;;;2.40;;
13228;SDS011;6680;53.220;10.402;2023-07-13T08:33:46;4.97;;;2.27;;
13228;SDS011;6680;53.220;10.402;2023-07-13T08:36:13;5.07;;;2.10;;
13228;SDS011;6680;53.220;10.402;2023-07-13T08:38:40;3.90;;;2.17;;
13228;SDS011;6680;53.220;10.402;2023-07-13T08:41:11;3.10;;;2.20;;
13228;SDS011;6680;53.220;10.402;2023-07-13T08:43:39;4.27;;;2.50;;
13228;SDS011;6680;53.220;10.402;2023-07-13T08:46:09;5.73;;;2.37;;
13228;SDS011;6680;53.220;10.402;2023-07-13T08:48:43;6.60;;;2.67;;
13228;SDS011;6680;53.220;10.402;2023-07-13T08:51:18;3.93;;;2.20;;
13228;SDS011;6680;53.220;10.402;2023-07-13T08:53:57;3.87;;;2.30;;
13228;SDS011;6680;53.220;10.402;2023-07-13T08:56:27;6.60;;;2.17;;
13228;SDS011;6680;53.220;10.402;2023-07-13T08:58:56;5.17;;;2.50;;
13228;SDS011;6680;53.220;10.402;2023-07-13T09:01:27;8.13;;;2.53;;
13228;SDS011;6680;53.220;10.402;2023-07-13T09:04:02;4.60;;;2.17;;
13228;SDS011;6680;53.220;10.402;2023-07-13T09:06:34;6.90;;;2.73;;
13228;SDS011;6680;53.220;10.402;2023-07-13T09:09:07;6.07;;;2.00;;
13228;SDS011;6680;53.220;10.402;2023-07-13T09:11:44;4.40;;;2.00;;
13228;SDS011;6680;53.220;10.402;2023-07-13T09:14:26;3.00;;;2.30;;
13228;SDS011;6680;53.220;10.402;2023-07-13T09:17:03;5.00;;;2.40;;
13228;SDS011;6680;53.220;10.402;2023-07-13T09:19:32;7.07;;;2.60;;
13228;SDS011;6680;53.220;10.402;2023-07-13T09:22:01;4.00;;;2.23;;
13228;SDS011;6680;53.220;10.402;2023-07-13T09:24:34;6.77;;;2.70;;
13228;SDS011;6680;53.220;10.402;2023-07-13T09:27:03;6.97;;;2.17;;
13228;SDS011;6680;53.220;10.402;2023-07-13T09:29:39;3.60;;;1.90;;
13228;SDS011;6680;53.220;10.402;2023-07-13T09:32:14;5.17;;;1.93;;
13228;SDS011;6680;53.220;10.402;2023-07-13T09:34:50;5.13;;;2.40;;
13228;SDS011;6680;53.220;10.402;2023-07-13T09:37:19;5.37;;;2.00;;
13228;SDS011;6680;53.220;10.402;2023-07-13T09:39:47;4.00;;;1.93;;
13228;SDS011;6680;53.220;10.402;2023-07-13T09:42:17;5.87;;;2.17;;
13228;SDS011;6680;53.220;10.402;2023-07-13T09:44:53;4.60;;;2.10;;
13228;SDS011;6680;53.220;10.402;2023-07-13T09:47:22;6.63;;;2.50;;
13228;SDS011;6680;53.220;10.402;2023-07-13T09:49:56;6.03;;;2.50;;
13228;SDS011;6680;53.220;10.402;2023-07-13T09:52:24;5.50;;;2.70;;
13228;SDS011;6680;53.220;10.402;2023-07-13T09:54:53;2.70;;;2.23;;
13228;SDS011;6680;53.220;10.402;2023-07-13T09:57:24;5.23;;;2.17;;
13228;SDS011;6680;53.220;10.402;2023-07-13T09:59:53;4.30;;;2.40;;
13228;SDS011;6680;53.220;10.402;2023-07-13T10:02:24;7.80;;;2.17;;
13228;SDS011;6680;53.220;10.402;2023-07-13T10:04:56;2.53;;;1.83;;
13228;SDS011;6680;53.220;10.402;2023-07-13T10:07:24;4.90;;;2.27;;
13228;SDS011;6680;53.220;10.402;2023-07-13T10:09:52;2.37;;;1.80;;
13228;SDS011;6680;53.220;10.402;2023-07-13T10:12:20;4.87;;;2.00;;
13228;SDS011;6680;53.220;10.402;2023-07-13T10:14:48;5.03;;;2.43;;
13228;SDS011;6680;53.220;10.402;2023-07-13T10:17:20;5.47;;;2.53;;
13228;SDS011;6680;53.220;10.402;2023-07-13T10:19:56;5.73;;;2.43;;
13228;SDS011;6680;53.220;10.402;2023-07-13T10:22:31;3.40;;;2.53;;
13228;SDS011;6680;53.220;10.402;2023-07-13T10:25:13;2.70;;;2.10;;
13228;SDS011;6680;53.220;10.402;2023-07-13T10:27:43;2.43;;;1.80;;
13228;SDS011;6680;53.220;10.402;2023-07-13T10:30:12;4.80;;;2.17;;
13228;SDS011;6680;53.220;10.402;2023-07-13T10:32:43;4.80;;;2.00;;
13228;SDS011;6680;53.220;10.402;2023-07-13T10:35:13;5.57;;;3.53;;
13228;SDS011;6680;53.220;10.402;2023-07-13T10:37:44;7.13;;;2.30;;
13228;SDS011;6680;53.220;10.402;2023-07-13T10:40:14;6.57;;;2.67;;
13228;SDS011;6680;53.220;10.402;2023-07-13T10:42:46;4.33;;;2.30;;
13228;SDS011;6680;53.220;10.402;2023-07-13T10:45:17;2.70;;;2.00;;
13228;SDS011;6680;53.220;10.402;2023-07-13T10:47:46;2.70;;;2.13;;
13228;SDS011;6680;53.220;10.402;2023-07-13T10:50:17;4.93;;;2.30;;
13228;SDS011;6680;53.220;10.402;2023-07-13T10:52:47;3.87;;;2.53;;
13228;SDS011;6680;53.220;10.402;2023-07-13T10:55:31;2.90;;;2.10;;
13228;SDS011;6680;53.220;10.402;2023-07-13T10:58:03;2.23;;;1.97;;
13228;SDS011;6680;53.220;10.402;2023-07-13T11:00:43;2.03;;;1.83;;
13228;SDS011;6680;53.220;10.402;2023-07-13T11:03:13;5.10;;;2.00;;
13228;SDS011;6680;53.220;10.402;2023-07-13T11:05:43;3.07;;;2.17;;
13228;SDS011;6680;53.220;10.402;2023-07-13T11:08:18;4.70;;;2.30;;
13228;SDS011;6680;53.220;10.402;2023-07-13T11:10:51;2.30;;;2.10;;
13228;SDS011;6680;53.220;10.402;2023-07-13T11:13:55;2.73;;;2.00;;
13228;SDS011;6680;53.220;10.402;2023-07-13T11:16:44;5.60;;;2.20;;
13228;SDS011;6680;53.220;10.402;2023-07-13T11:19:26;5.20;;;2.90;;
13228;SDS011;6680;53.220;10.402;2023-07-13T11:22:10;2.63;;;2.20;;
13228;SDS011;6680;53.220;10.402;2023-07-13T11:24:50;4.30;;;2.57;;
13228;SDS011;6680;53.220;10.402;2023-07-13T11:27:21;3.03;;;2.53;;
13228;SDS011;6680;53.220;10.402;2023-07-13T11:30:06;4.53;;;2.50;;
13228;SDS011;6680;53.220;10.402;2023-07-13T11:32:35;3.67;;;2.43;;
13228;SDS011;6680;53.220;10.402;2023-07-13T11:35:02;4.03;;;1.80;;
13228;SDS011;6680;53.220;10.402;2023-07-13T11:37:31;2.50;;;2.30;;
13228;SDS011;6680;53.220;10.402;2023-07-13T11:39:58;2.67;;;1.97;;
13228;SDS011;6680;53.220;10.402;2023-07-13T11:42:25;3.77;;;2.23;;
13228;SDS011;6680;53.220;10.402;2023-07-13T11:44:52;2.90;;;2.43;;
13228;SDS011;6680;53.220;10.402;2023-07-13T11:47:21;2.97;;;2.10;;
13228;SDS011;6680;53.220;10.402;2023-07-13T11:49:51;2.63;;;2.43;;
13228;SDS011;6680;53.220;10.402;2023-07-13T11:52:21;3.17;;;2.20;;
13228;SDS011;6680;53.220;10.402;2023-07-13T11:54:51;2.57;;;1.70;;
13228;SDS011;6680;53.220;10.402;2023-07-13T11:57:23;3.47;;;2.40;;
13228;SDS011;6680;53.220;10.402;2023-07-13T11:59:52;3.23;;;2.60;;
13228;SDS011;6680;53.220;10.402;2023-07-13T12:02:29;3.60;;;2.23;;
13228;SDS011;6680;53.220;10.402;2023-07-13T12:04:58;2.60;;;2.40;;
13228;SDS011;6680;53.220;10.402;2023-07-13T12:07:27;5.03;;;2.27;;
13228;SDS011;6680;53.220;10.402;2023-07-13T12:10:01;4.07;;;1.97;;
13228;SDS011;6680;53.220;10.402;2023-07-13T12:12:29;3.07;;;2.40;;
13228;SDS011;6680;53.220;10.402;2023-07-13T12:14:57;4.30;;;2.17;;
13228;SDS011;6680;53.220;10.402;2023-07-13T12:17:24;3.63;;;1.97;;
13228;SDS011;6680;53.220;10.402;2023-07-13T12:19:52;2.33;;;1.87;;
13228;SDS011;6680;53.220;10.402;2023-07-13T12:22:19;2.43;;;2.00;;
13228;SDS011;6680;53.220;10.402;2023-07-13T12:24:48;2.77;;;2.00;;
13228;SDS011;6680;53.220;10.402;2023-07-13T12:27:19;2.33;;;2.10;;
13228;SDS011;6680;53.220;10.402;2023-07-13T12:29:51;2.60;;;2.10;;
13228;SDS011;6680;53.220;10.402;2023-07-13T12:32:20;2.73;;;1.83;;
13228;SDS011;6680;53.220;10.402;2023-07-13T12:34:51;3.43;;;2.20;;
13228;SDS011;6680;53.220;10.402;2023-07-13T12:37:19;3.70;;;2.40;;
13228;SDS011;6680;53.220;10.402;2023-07-13T12:39:46;3.30;;;2.13;;
13228;SDS011;6680;53.220;10.402;2023-07-13T12:42:19;2.43;;;2.23;;
13228;SDS011;6680;53.220;10.402;2023-07-13T12:44:52;3.03;;;2.60;;
13228;SDS011;6680;53.220;10.402;2023-07-13T12:47:20;3.90;;;2.30;;
13228;SDS011;6680;53.220;10.402;2023-07-13T12:49:47;2.17;;;2.03;;
13228;SDS011;6680;53.220;10.402;2023-07-13T12:52:16;3.63;;;2.40;;
13228;SDS011;6680;53.220;10.402;2023-07-13T12:54:54;3.43;;;2.37;;
13228;SDS011;6680;53.220;10.402;2023-07-13T12:57:24;4.27;;;2.30;;
13228;SDS011;6680;53.220;10.402;2023-07-13T12:59:52;2.80;;;2.10;;
13228;SDS011;6680;53.220;10.402;2023-07-13T13:02:28;2.83;;;2.40;;
13228;SDS011;6680;53.220;10.402;2023-07-13T13:04:56;4.90;;;2.17;;
13228;SDS011;6680;53.220;10.402;2023-07-13T13:07:24;2.67;;;2.47;;
13228;SDS011;6680;53.220;10.402;2023-07-13T13:09:51;4.60;;;2.67;;
13228;SDS011;6680;53.220;10.402;2023-07-13T13:12:19;2.37;;;2.17;;
13228;SDS011;6680;53.220;10.402;2023-07-13T13:14:48;5.43;;;2.63;;
13228;SDS011;6680;53.220;10.402;2023-07-13T13:17:17;3.47;;;2.47;;
13228;SDS011;6680;53.220;10.402;2023-07-13T13:19:46;3.00;;;2.73;;
13228;SDS011;6680;53.220;10.402;2023-07-13T13:22:13;2.90;;;2.30;;
13228;SDS011;6680;53.220;10.402;2023-07-13T13:24:40;4.23;;;2.87;;
13228;SDS011;6680;53.220;10.402;2023-07-13T13:27:09;4.17;;;3.17;;
13228;SDS011;6680;53.220;10.402;2023-07-13T13:29:42;4.23;;;2.93;;
13228;SDS011;6680;53.220;10.402;2023-07-13T13:32:10;3.67;;;2.60;;
13228;SDS011;6680;53.220;10.402;2023-07-13T13:34:38;3.80;;;3.13;;
13228;SDS011;6680;53.220;10.402;2023-07-13T13:37:08;4.97;;;2.80;;
13228;SDS011;6680;53.220;10.402;2023-07-13T13:39:43;3.60;;;3.00;;
13228;SDS011;6680;53.220;10.402;2023-07-13T13:42:10;4.20;;;2.80;;
13228;SDS011;6680;53.220;10.402;2023-07-13T13:44:37;2.93;;;2.57;;
13228;SDS011;6680;53.220;10.402;2023-07-13T13:47:22;5.30;;;3.07;;
13228;SDS011;6680;53.220;10.402;2023-07-13T13:49:56;4.40;;;2.77;;
13228;SDS011;6680;53.220;10.402;2023-07-13T13:52:23;2.83;;;2.43;;
13228;SDS011;6680;53.220;10.402;2023-07-13T13:54:50;3.83;;;2.40;;
13228;SDS011;6680;53.220;10.402;2023-07-13T13:57:20;2.87;;;2.57;;
13228;SDS011;6680;53.220;10.402;2023-07-13T13:59:48;3.43;;;2.70;;
13228;SDS011;6680;53.220;10.402;2023-07-13T14:02:20;3.30;;;2.70;;
13228;SDS011;6680;53.220;10.402;2023-07-13T14:07:20;5.10;;;3.03;;
13228;SDS011;6680;53.220;10.402;2023-07-13T14:09:47;3.50;;;2.70;;
13228;SDS011;6680;53.220;10.402;2023-07-13T14:12:14;4.57;;;3.47;;
13228;SDS011;6680;53.220;10.402;2023-07-13T14:14:41;3.30;;;2.70;;
13228;SDS011;6680;53.220;10.402;2023-07-13T14:17:11;3.83;;;2.70;;
13228;SDS011;6680;53.220;10.402;2023-07-13T14:19:47;3.50;;;2.77;;
13228;SDS011;6680;53.220;10.402;2023-07-13T14:22:17;2.70;;;2.50;;
13228;SDS011;6680;53.220;10.402;2023-07-13T14:24:44;3.53;;;3.10;;
13228;SDS011;6680;53.220;10.402;2023-07-13T14:27:11;2.73;;;2.53;;
13228;SDS011;6680;53.220;10.402;2023-07-13T14:29:38;2.90;;;2.60;;
13228;SDS011;6680;53.220;10.402;2023-07-13T14:32:08;3.67;;;2.40;;
13228;SDS011;6680;53.220;10.402;2023-07-13T14:34:36;3.43;;;2.57;;
13228;SDS011;6680;53.220;10.402;2023-07-13T14:37:03;3.37;;;2.77;;
13228;SDS011;6680;53.220;10.402;2023-07-13T14:39:32;2.63;;;2.43;;
13228;SDS011;6680;53.220;10.402;2023-07-13T14:41:58;3.63;;;2.90;;
13228;SDS011;6680;53.220;10.402;2023-07-13T14:44:26;5.30;;;2.93;;
13228;SDS011;6680;53.220;10.402;2023-07-13T14:46:55;5.13;;;3.07;;
13228;SDS011;6680;53.220;10.402;2023-07-13T14:49:24;4.03;;;3.00;;
13228;SDS011;6680;53.220;10.402;2023-07-13T14:51:55;5.27;;;4.23;;
13228;SDS011;6680;53.220;10.402;2023-07-13T14:54:23;2.90;;;2.70;;
13228;SDS011;6680;53.220;10.402;2023-07-13T14:56:51;5.13;;;2.83;;
13228;SDS011;6680;53.220;10.402;2023-07-13T14:59:18;6.47;;;3.30;;
13228;SDS011;6680;53.220;10.402;2023-07-13T15:01:45;2.63;;;2.43;;